Voyager Of The Seas — C6SE5 — position and weather

sailwx.info

Track history (hours):
 
Tides and Currents Weather Stations Pressure Air Temp Water Temp Dewpoint Dewpoint Depression Visibility Wind Speed Wind Dir Waves Ship Positions

Voyager Of The Seas

Operator: Royal Caribbean Cruises Ltd

Last reported at 2017-Sep-26 00:44 UTC. Time now 2017-Sep-26 04:06 UTC.
Position N 22°27' E 113°53'.

Type: Passenger vessel. MMSI: 311317000.

Date/timePositionNaut miles runAvg speedWind from/ knotsBaromVisibWave heightAir tempDewpointWater temp
2017-Sep-26 00:44N 22°27' E 113°53'  
2017-Sep-21 07:12N 24°02' E 119°01'1021.7
2017-Sep-21 06:45N 24°09' E 119°10'521.4
2017-Sep-21 06:30N 24°12' E 119°15'1121.3
2017-Sep-21 06:00N 24°18' E 119°24'1020.9
2017-Sep-21 05:30N 24°24' E 119°33'1221.1
2017-Sep-21 04:55N 24°31' E 119°44'1520.3
2017-Sep-21 04:11N 24°40' E 119°58'620.5
2017-Sep-21 03:52N 24°42' E 120°04'2320.9
2017-Sep-21 02:47N 24°54' E 120°26'620.8
2017-Sep-21 02:29N 24°55' E 120°32'  
2017-Sep-18 11:28N 24°60' E 120°39'1216.9
2017-Sep-18 10:46N 24°52' E 120°28'517.2
2017-Sep-18 10:27N 24°49' E 120°23'817.4
2017-Sep-18 10:00N 24°47' E 120°15'1017.8
2017-Sep-18 09:25N 24°42' E 120°05'718.0
2017-Sep-18 09:00N 24°39' E 119°58'918.3
2017-Sep-18 08:30N 24°34' E 119°49'1118.4
2017-Sep-18 07:56N 24°28' E 119°39'818.2
2017-Sep-18 07:29N 24°24' E 119°32'918.0
2017-Sep-18 06:59N 24°18' E 119°24'32410.2
2017-Sep-16 23:19N 22°27' E 113°53'411.2
2017-Sep-16 22:57N 22°23' E 113°50'  
Track history (hours):
 
Tides and Currents Weather Stations Pressure Air Temp Water Temp Dewpoint Dewpoint Depression Visibility Wind Speed Wind Dir Waves Ship Positions

Voyager Of The Seas

Operator: Royal Caribbean Cruises Ltd

Last reported at 2017-Sep-26 00:44 UTC. Time now 2017-Sep-26 04:06 UTC.
Position N 22°27' E 113°53'.

Type: Passenger vessel. MMSI: 311317000.

Date/timePositionNaut miles runAvg speedWind from/ knotsBaromVisibWave heightAir tempDewpointWater temp
2017-Sep-26 00:44N 22°27' E 113°53'  
2017-Sep-21 07:12N 24°02' E 119°01'1021.7
2017-Sep-21 06:45N 24°09' E 119°10'521.4
2017-Sep-21 06:30N 24°12' E 119°15'1121.3
2017-Sep-21 06:00N 24°18' E 119°24'1020.9
2017-Sep-21 05:30N 24°24' E 119°33'1221.1
2017-Sep-21 04:55N 24°31' E 119°44'1520.3
2017-Sep-21 04:11N 24°40' E 119°58'620.5
2017-Sep-21 03:52N 24°42' E 120°04'2320.9
2017-Sep-21 02:47N 24°54' E 120°26'620.8
2017-Sep-21 02:29N 24°55' E 120°32'  
2017-Sep-18 11:28N 24°60' E 120°39'1216.9
2017-Sep-18 10:46N 24°52' E 120°28'517.2
2017-Sep-18 10:27N 24°49' E 120°23'817.4
2017-Sep-18 10:00N 24°47' E 120°15'1017.8
2017-Sep-18 09:25N 24°42' E 120°05'718.0
2017-Sep-18 09:00N 24°39' E 119°58'918.3
2017-Sep-18 08:30N 24°34' E 119°49'1118.4
2017-Sep-18 07:56N 24°28' E 119°39'818.2
2017-Sep-18 07:29N 24°24' E 119°32'918.0
2017-Sep-18 06:59N 24°18' E 119°24'32410.2
2017-Sep-16 23:19N 22°27' E 113°53'411.2
2017-Sep-16 22:57N 22°23' E 113°50'  

Dump ship's entire track history